createdAt,value
2022-10-06T00:02:24.532Z,19.80
2022-10-06T00:04:56.807Z,19.60
2022-10-06T00:07:28.778Z,19.70
2022-10-06T00:10:01.360Z,19.80
2022-10-06T00:12:50.017Z,19.70
2022-10-06T00:15:30.180Z,19.60
2022-10-06T00:18:02.910Z,19.50
2022-10-06T00:23:07.840Z,19.60
2022-10-06T00:28:12.660Z,19.60
2022-10-06T00:33:19.430Z,19.70
2022-10-06T00:36:01.152Z,19.70
2022-10-06T00:38:33.577Z,19.60
2022-10-06T00:41:06.265Z,19.50
2022-10-06T00:43:49.055Z,19.60
2022-10-06T00:46:45.348Z,19.50
2022-10-06T00:49:36.651Z,19.50
2022-10-06T00:52:14.847Z,19.60
2022-10-06T00:54:47.279Z,19.50
2022-10-06T00:57:20.668Z,19.50
2022-10-06T00:59:53.956Z,19.50
2022-10-06T01:02:42.765Z,19.50
2022-10-06T01:05:33.158Z,19.40
2022-10-06T01:08:05.119Z,19.40
2022-10-06T01:10:37.526Z,19.50
2022-10-06T01:13:11.349Z,19.50
2022-10-06T01:16:08.424Z,19.40
2022-10-06T01:18:42.789Z,19.40
2022-10-06T01:21:36.694Z,19.40
2022-10-06T01:24:09.981Z,19.20
2022-10-06T01:26:46.932Z,19.30
2022-10-06T01:29:20.103Z,19.20
2022-10-06T01:31:52.113Z,19.20
2022-10-06T01:34:24.859Z,19.20
2022-10-06T01:36:56.784Z,19.10
2022-10-06T01:39:30.379Z,19.00
2022-10-06T01:42:02.157Z,19.10
2022-10-06T01:44:34.920Z,19.00
2022-10-06T01:47:08.427Z,19.00
2022-10-06T01:49:40.486Z,19.10
2022-10-06T01:52:13.701Z,19.00
2022-10-06T01:54:46.682Z,19.00
2022-10-06T01:57:21.785Z,19.10
2022-10-06T01:59:55.032Z,19.20
2022-10-06T02:02:31.674Z,19.20
2022-10-06T02:05:05.038Z,19.30
2022-10-06T02:07:39.375Z,19.20
2022-10-06T02:10:11.337Z,19.20
2022-10-06T02:12:44.311Z,19.10
2022-10-06T02:15:16.308Z,19.00
2022-10-06T02:17:49.795Z,19.10
2022-10-06T02:20:22.762Z,18.90
2022-10-06T02:22:55.205Z,18.80
2022-10-06T02:25:28.801Z,18.70
2022-10-06T02:28:01.124Z,18.70
2022-10-06T02:30:34.087Z,18.70
2022-10-06T02:33:06.253Z,18.60
2022-10-06T02:35:39.026Z,18.50
2022-10-06T02:38:11.067Z,18.40
2022-10-06T02:40:44.832Z,18.30
2022-10-06T02:43:17.288Z,18.30
2022-10-06T02:45:56.310Z,18.20
2022-10-06T02:48:31.313Z,18.20
2022-10-06T02:51:08.795Z,18.40
2022-10-06T02:53:45.048Z,18.30
2022-10-06T02:56:25.805Z,18.20
2022-10-06T02:58:58.225Z,18.30
2022-10-06T03:01:33.360Z,18.40
2022-10-06T03:04:13.613Z,18.10
2022-10-06T03:11:57.698Z,17.60
2022-10-06T03:14:37.152Z,17.50
2022-10-06T03:17:10.223Z,17.30
2022-10-06T03:19:49.154Z,17.20
2022-10-06T03:22:21.405Z,17.00
2022-10-06T03:24:58.383Z,17.00
2022-10-06T03:27:31.267Z,17.00
2022-10-06T03:30:08.869Z,17.00
2022-10-06T03:32:42.011Z,16.90
2022-10-06T03:35:15.941Z,16.90
2022-10-06T03:37:47.974Z,16.90
2022-10-06T03:40:20.745Z,16.80
2022-10-06T03:42:53.219Z,16.80
2022-10-06T03:45:25.225Z,16.70
2022-10-06T03:47:58.102Z,16.60
2022-10-06T03:50:30.294Z,16.40
2022-10-06T03:53:03.042Z,16.20
2022-10-06T03:58:09.219Z,16.10
2022-10-06T04:00:42.063Z,16.00
2022-10-06T04:03:20.643Z,15.90
2022-10-06T04:05:58.108Z,15.90
2022-10-06T04:08:33.856Z,15.70
2022-10-06T04:11:09.978Z,15.70
2022-10-06T04:13:44.778Z,15.70
2022-10-06T04:16:26.581Z,15.50
2022-10-06T04:19:06.558Z,15.40
2022-10-06T04:21:41.157Z,15.40
2022-10-06T04:26:53.734Z,15.60
2022-10-06T04:32:02.787Z,15.50
2022-10-06T04:34:40.737Z,15.60
2022-10-06T04:39:47.627Z,15.50
2022-10-06T04:42:19.578Z,15.40
2022-10-06T04:44:52.289Z,15.50
2022-10-06T04:47:24.475Z,15.50
2022-10-06T04:55:04.777Z,15.20
2022-10-06T04:57:36.780Z,15.20
2022-10-06T05:00:23.094Z,15.20
2022-10-06T05:02:56.272Z,15.00
2022-10-06T05:05:29.232Z,15.00
2022-10-06T05:08:02.487Z,14.90
2022-10-06T05:13:11.937Z,14.70
2022-10-06T05:15:44.177Z,14.70
2022-10-06T05:18:17.400Z,14.70
2022-10-06T05:21:06.747Z,14.80
2022-10-06T05:23:41.892Z,14.90
2022-10-06T05:26:17.917Z,15.00
2022-10-06T05:28:51.247Z,15.00
2022-10-06T05:31:28.399Z,14.90
2022-10-06T05:34:01.488Z,15.00
2022-10-06T05:36:34.532Z,15.00
2022-10-06T05:39:11.570Z,15.10
2022-10-06T05:44:31.423Z,15.10
2022-10-06T05:47:06.386Z,15.20
2022-10-06T05:49:41.164Z,15.10
2022-10-06T05:54:46.486Z,15.20
2022-10-06T05:59:52.897Z,15.20
2022-10-06T06:02:24.898Z,15.20
2022-10-06T06:04:57.990Z,15.10
2022-10-06T06:07:30.333Z,15.00
2022-10-06T06:10:03.304Z,15.20
2022-10-06T06:12:35.405Z,15.30
2022-10-06T06:15:39.019Z,15.30
2022-10-06T06:18:13.332Z,15.20
2022-10-06T06:21:00.021Z,15.10
2022-10-06T06:24:11.497Z,15.20
2022-10-06T06:26:43.833Z,15.30
2022-10-06T06:31:52.143Z,15.60
2022-10-06T06:34:26.927Z,15.70
2022-10-06T06:37:06.182Z,15.80
2022-10-06T06:39:39.981Z,15.90
2022-10-06T06:45:04.475Z,15.70
2022-10-06T06:47:42.840Z,15.80
2022-10-06T06:50:17.717Z,16.10
2022-10-06T06:52:50.115Z,16.30
2022-10-06T06:55:23.050Z,16.40
2022-10-06T06:57:55.104Z,16.60
2022-10-06T07:00:30.397Z,16.70
2022-10-06T07:05:40.551Z,16.90
2022-10-06T07:08:15.381Z,16.90
2022-10-06T07:10:49.697Z,16.90
2022-10-06T07:13:22.065Z,17.00
2022-10-06T07:16:12.460Z,17.00
2022-10-06T07:19:04.080Z,17.10
2022-10-06T07:21:54.491Z,17.20
2022-10-06T07:24:46.425Z,17.10
2022-10-06T07:27:18.556Z,17.10
2022-10-06T07:29:54.946Z,17.10
2022-10-06T07:32:30.814Z,17.00
2022-10-06T07:35:06.829Z,17.00
2022-10-06T07:40:15.270Z,16.70
2022-10-06T07:45:39.821Z,16.70
2022-10-06T07:48:22.542Z,16.70
2022-10-06T07:50:58.897Z,16.80
2022-10-06T07:53:36.089Z,16.80
2022-10-06T07:56:16.232Z,16.80
2022-10-06T08:01:30.757Z,16.60
2022-10-06T08:04:06.758Z,16.50
2022-10-06T08:09:12.453Z,16.60
2022-10-06T08:11:45.151Z,16.60
2022-10-06T08:14:17.453Z,16.60
2022-10-06T08:19:23.145Z,16.70
2022-10-06T08:21:55.079Z,16.70
2022-10-06T08:24:33.842Z,16.60
2022-10-06T08:29:48.044Z,16.90
2022-10-06T08:32:23.198Z,16.90
2022-10-06T08:34:56.479Z,17.00
2022-10-06T08:37:28.705Z,17.10
2022-10-06T08:40:01.987Z,17.30
2022-10-06T08:42:42.254Z,17.50
2022-10-06T08:45:28.491Z,17.40
2022-10-06T08:48:14.324Z,17.50
2022-10-06T08:51:05.038Z,17.40
2022-10-06T08:54:01.895Z,17.40
2022-10-06T08:56:51.908Z,17.40
2022-10-06T09:02:32.787Z,17.50
2022-10-06T09:05:06.742Z,17.50
2022-10-06T09:08:05.089Z,17.50
2022-10-06T09:10:54.402Z,17.60
2022-10-06T09:13:31.515Z,17.80
2022-10-06T09:16:08.983Z,17.80
2022-10-06T09:19:15.797Z,17.80
2022-10-06T09:21:52.048Z,18.10
2022-10-06T09:24:47.221Z,18.10
2022-10-06T09:27:21.736Z,18.00
2022-10-06T09:29:54.375Z,18.00
2022-10-06T09:32:31.005Z,18.00
2022-10-06T09:35:22.431Z,18.00
2022-10-06T09:38:08.662Z,18.00
2022-10-06T09:40:49.758Z,18.00
2022-10-06T09:43:29.063Z,18.00
2022-10-06T09:46:27.938Z,18.00
2022-10-06T09:49:24.648Z,18.00
2022-10-06T09:52:02.200Z,18.10
2022-10-06T09:54:35.416Z,18.10
2022-10-06T09:57:21.664Z,18.30
2022-10-06T09:59:54.639Z,18.50
2022-10-06T10:02:37.279Z,18.50
2022-10-06T10:05:21.866Z,18.60
2022-10-06T10:08:17.667Z,18.40
2022-10-06T10:11:37.433Z,18.50
2022-10-06T10:14:19.625Z,18.70
2022-10-06T10:16:53.500Z,18.90
2022-10-06T10:19:38.323Z,19.20
2022-10-06T10:22:34.957Z,19.40
2022-10-06T10:28:29.941Z,19.60
2022-10-06T10:31:31.164Z,19.40
2022-10-06T10:34:34.775Z,19.50
2022-10-06T10:37:24.983Z,19.90
2022-10-06T10:40:34.900Z,20.00
2022-10-06T10:43:15.229Z,20.10
2022-10-06T10:46:09.832Z,20.00
2022-10-06T10:49:01.819Z,19.90
2022-10-06T10:51:42.440Z,20.60
2022-10-06T10:54:30.255Z,21.40
2022-10-06T10:57:03.976Z,22.00
2022-10-06T10:59:50.735Z,22.30
2022-10-06T11:02:23.931Z,22.30
2022-10-06T11:05:10.685Z,22.00
2022-10-06T11:08:49.892Z,21.70
2022-10-06T11:11:59.161Z,21.60
2022-10-06T11:15:10.300Z,21.50
2022-10-06T11:17:45.271Z,21.70
2022-10-06T11:20:48.785Z,21.60
2022-10-06T11:23:41.032Z,21.50
2022-10-06T11:26:45.076Z,21.40
2022-10-06T11:29:39.440Z,21.20
2022-10-06T11:32:41.003Z,21.10
2022-10-06T11:35:23.807Z,21.10
2022-10-06T11:38:13.519Z,21.20
2022-10-06T11:41:09.859Z,21.30
2022-10-06T11:44:00.776Z,21.90
2022-10-06T11:46:56.415Z,22.20
2022-10-06T11:49:32.378Z,22.50
2022-10-06T11:52:08.782Z,22.60
2022-10-06T11:54:54.762Z,22.70
2022-10-06T11:57:30.845Z,22.70
2022-10-06T12:00:27.019Z,22.10
2022-10-06T12:03:34.242Z,21.70
2022-10-06T12:08:41.996Z,21.80
2022-10-06T12:11:40.538Z,21.60
2022-10-06T12:17:44.769Z,21.40
2022-10-06T12:21:06.300Z,21.40
2022-10-06T12:23:51.015Z,21.50
2022-10-06T12:26:54.531Z,21.00
2022-10-06T12:32:38.131Z,21.20
2022-10-06T12:35:24.655Z,21.30
2022-10-06T12:38:05.148Z,21.40
2022-10-06T12:40:44.146Z,21.50
2022-10-06T12:43:20.917Z,21.60
2022-10-06T12:45:56.108Z,21.40
2022-10-06T12:48:36.514Z,21.20
2022-10-06T12:51:25.179Z,21.00
2022-10-06T12:54:36.500Z,21.10
2022-10-06T12:57:17.660Z,21.20
2022-10-06T12:59:50.505Z,20.90
2022-10-06T13:02:26.663Z,20.90
2022-10-06T13:05:11.469Z,21.00
2022-10-06T13:08:07.672Z,21.00
2022-10-06T13:10:40.435Z,21.20
2022-10-06T13:13:24.656Z,21.30
2022-10-06T13:16:00.959Z,21.20
2022-10-06T13:21:14.779Z,21.10
2022-10-06T13:23:48.052Z,21.00
2022-10-06T13:26:33.121Z,20.90
2022-10-06T13:29:17.435Z,20.90
2022-10-06T13:31:55.917Z,20.90
2022-10-06T13:34:35.250Z,20.80
2022-10-06T13:37:14.849Z,20.80
2022-10-06T13:39:46.807Z,20.80
2022-10-06T13:42:24.106Z,20.60
2022-10-06T13:45:00.725Z,20.60
2022-10-06T13:47:34.706Z,20.80
2022-10-06T13:50:09.188Z,21.00
2022-10-06T13:52:46.888Z,21.00
2022-10-06T13:55:23.061Z,20.90
2022-10-06T13:58:02.113Z,21.00
2022-10-06T14:00:56.279Z,21.00
2022-10-06T14:03:38.480Z,20.90
2022-10-06T14:06:22.662Z,20.90
2022-10-06T14:08:57.985Z,20.80
2022-10-06T14:14:06.341Z,21.40
2022-10-06T14:16:39.136Z,20.90
2022-10-06T14:19:33.842Z,20.90
2022-10-06T14:22:31.941Z,20.70
2022-10-06T14:25:15.607Z,20.60
2022-10-06T14:27:47.569Z,20.50
2022-10-06T14:35:25.442Z,20.40
2022-10-06T14:37:58.363Z,20.30
2022-10-06T14:40:30.379Z,20.10
2022-10-06T14:43:03.404Z,20.10
2022-10-06T14:45:41.664Z,20.00
2022-10-06T14:48:15.740Z,19.90
2022-10-06T14:50:47.611Z,20.00
2022-10-06T14:53:20.398Z,20.10
2022-10-06T14:55:52.499Z,20.00
2022-10-06T14:58:25.266Z,19.90
2022-10-06T15:01:08.080Z,19.80
2022-10-06T15:03:42.635Z,19.80
2022-10-06T15:09:09.448Z,19.70
2022-10-06T15:11:41.927Z,19.60
2022-10-06T15:21:53.001Z,19.40
2022-10-06T15:24:25.796Z,19.40
2022-10-06T15:27:19.191Z,19.30
2022-10-06T15:29:53.655Z,19.30
2022-10-06T15:32:25.729Z,19.40
2022-10-06T15:35:00.018Z,19.40
2022-10-06T15:40:05.593Z,19.30
2022-10-06T15:47:44.315Z,19.30
2022-10-06T15:50:18.993Z,19.30
2022-10-06T15:55:24.879Z,19.10
2022-10-06T15:57:57.228Z,19.20
2022-10-06T16:00:29.115Z,19.10
2022-10-06T16:03:02.198Z,19.20
2022-10-06T16:10:55.561Z,19.00
2022-10-06T16:13:27.504Z,18.90
2022-10-06T16:15:59.870Z,18.80
2022-10-06T16:18:31.947Z,18.80
2022-10-06T16:21:04.809Z,18.70
2022-10-06T16:23:36.889Z,18.70
2022-10-06T16:28:42.035Z,18.60
2022-10-06T16:33:48.035Z,18.40
2022-10-06T16:38:54.380Z,16.10
2022-10-06T16:46:33.245Z,18.20
2022-10-06T16:49:07.895Z,18.00
2022-10-06T16:51:43.131Z,18.00
2022-10-06T16:54:21.205Z,18.20
2022-10-06T16:56:54.896Z,18.00
2022-10-06T16:59:29.145Z,18.20
2022-10-06T17:02:01.474Z,18.20
2022-10-06T17:04:33.653Z,18.20
2022-10-06T17:07:06.497Z,18.20
2022-10-06T17:09:41.444Z,18.20
2022-10-06T17:14:52.658Z,18.10
2022-10-06T17:17:24.580Z,18.10
2022-10-06T17:19:57.296Z,18.10
2022-10-06T17:22:30.620Z,18.00
2022-10-06T17:25:02.947Z,18.00
2022-10-06T17:27:39.620Z,18.00
2022-10-06T17:30:15.795Z,17.90
2022-10-06T17:32:48.349Z,17.90
2022-10-06T17:40:27.292Z,17.90
2022-10-06T17:45:34.631Z,17.90
2022-10-06T17:48:08.842Z,17.80
2022-10-06T17:50:41.180Z,17.80
2022-10-06T17:53:15.259Z,17.80
2022-10-06T17:55:47.577Z,17.80
2022-10-06T17:58:20.356Z,17.70
2022-10-06T18:00:52.679Z,17.70
2022-10-06T18:03:26.859Z,17.60
2022-10-06T18:06:00.401Z,17.60
2022-10-06T18:08:33.742Z,17.60
2022-10-06T18:11:25.469Z,17.60
2022-10-06T18:13:58.395Z,17.50
2022-10-06T18:16:39.526Z,17.40
2022-10-06T18:19:24.670Z,17.40
2022-10-06T18:22:11.979Z,17.40
2022-10-06T18:24:44.582Z,17.40
2022-10-06T18:27:16.491Z,17.50
2022-10-06T18:29:49.202Z,17.60
2022-10-06T18:38:06.857Z,17.50
2022-10-06T18:40:39.878Z,17.30
2022-10-06T18:43:13.550Z,17.20
2022-10-06T18:46:04.000Z,17.20
2022-10-06T18:48:56.778Z,17.10
2022-10-06T18:51:36.392Z,17.10
2022-10-06T18:54:15.563Z,17.00
2022-10-06T18:56:51.524Z,17.10
2022-10-06T18:59:27.470Z,17.10
2022-10-06T19:02:02.266Z,17.00
2022-10-06T19:04:36.285Z,16.90
2022-10-06T19:07:08.876Z,16.80
2022-10-06T19:12:19.448Z,16.70
2022-10-06T19:14:52.179Z,16.70
2022-10-06T19:19:57.472Z,16.70
2022-10-06T19:22:29.439Z,16.70
2022-10-06T19:25:02.245Z,16.80
2022-10-06T19:27:36.357Z,16.70
2022-10-06T19:30:09.881Z,16.70
2022-10-06T19:32:42.434Z,16.70
2022-10-06T19:35:14.771Z,16.70
2022-10-06T19:37:46.855Z,16.60
2022-10-06T19:42:52.023Z,16.60
2022-10-06T19:45:24.826Z,16.60
2022-10-06T19:47:57.809Z,16.50
2022-10-06T19:50:30.764Z,16.50
2022-10-06T19:53:04.655Z,16.40
2022-10-06T19:58:28.404Z,16.40
2022-10-06T20:01:05.489Z,16.40
2022-10-06T20:03:42.094Z,16.50
2022-10-06T20:06:15.727Z,16.50
2022-10-06T20:08:47.803Z,16.50
2022-10-06T20:11:22.919Z,16.50
2022-10-06T20:13:55.527Z,16.50
2022-10-06T20:16:28.350Z,16.50
2022-10-06T20:19:03.416Z,16.40
2022-10-06T20:21:36.137Z,16.40
2022-10-06T20:24:18.374Z,16.30
2022-10-06T20:26:52.575Z,16.30
2022-10-06T20:29:26.917Z,16.30
2022-10-06T20:31:59.417Z,16.20
2022-10-06T20:34:31.949Z,16.10
2022-10-06T20:37:06.348Z,16.20
2022-10-06T20:39:56.573Z,16.10
2022-10-06T20:45:04.818Z,16.10
2022-10-06T20:47:36.967Z,16.00
2022-10-06T20:50:10.125Z,15.90
2022-10-06T20:52:42.474Z,15.80
2022-10-06T20:55:15.079Z,15.80
2022-10-06T20:57:48.902Z,15.70
2022-10-06T21:00:24.501Z,15.70
2022-10-06T21:02:56.914Z,15.70
2022-10-06T21:05:35.398Z,15.60
2022-10-06T21:10:40.888Z,15.40
2022-10-06T21:13:13.042Z,15.40
2022-10-06T21:15:46.095Z,15.40
2022-10-06T21:21:00.632Z,15.30
2022-10-06T21:23:38.997Z,15.20
2022-10-06T21:26:14.798Z,15.20
2022-10-06T21:31:24.067Z,15.10
2022-10-06T21:33:56.855Z,15.00
2022-10-06T21:36:32.594Z,14.90
2022-10-06T21:39:06.882Z,14.90
2022-10-06T21:41:41.247Z,14.90
2022-10-06T21:44:18.723Z,14.80
2022-10-06T21:46:54.369Z,14.70
2022-10-06T21:49:28.743Z,14.60
2022-10-06T21:52:05.389Z,15.00
2022-10-06T21:54:38.246Z,14.60
2022-10-06T21:57:15.824Z,14.70
2022-10-06T21:59:47.867Z,14.60
2022-10-06T22:04:53.615Z,14.60
2022-10-06T22:07:26.482Z,14.60
2022-10-06T22:09:58.508Z,14.70
2022-10-06T22:12:31.404Z,14.70
2022-10-06T22:15:03.913Z,14.70
2022-10-06T22:20:09.698Z,14.60
2022-10-06T22:22:42.600Z,14.50
2022-10-06T22:30:22.040Z,14.40
2022-10-06T22:32:55.166Z,14.40
2022-10-06T22:35:27.206Z,14.40
2022-10-06T22:38:00.663Z,14.40
2022-10-06T22:40:32.740Z,14.40
2022-10-06T22:43:05.643Z,14.30
2022-10-06T22:45:38.136Z,14.30
2022-10-06T22:48:10.651Z,14.20
2022-10-06T22:50:43.147Z,14.20
2022-10-06T22:53:17.365Z,14.40
2022-10-06T22:55:49.854Z,14.20
2022-10-06T22:58:23.132Z,14.10
2022-10-06T23:00:55.789Z,13.90
2022-10-06T23:03:28.891Z,13.90
2022-10-06T23:06:01.528Z,13.90
2022-10-06T23:08:35.485Z,13.90
2022-10-06T23:11:14.631Z,13.90
2022-10-06T23:13:48.914Z,13.80
2022-10-06T23:16:22.104Z,13.90
2022-10-06T23:18:56.069Z,13.90
2022-10-06T23:21:28.301Z,13.90
2022-10-06T23:24:01.478Z,13.90
2022-10-06T23:26:33.574Z,13.90
2022-10-06T23:29:07.797Z,13.80
2022-10-06T23:31:40.003Z,13.80
2022-10-06T23:34:12.978Z,13.70
2022-10-06T23:36:45.101Z,13.70
2022-10-06T23:41:50.676Z,13.60
2022-10-06T23:44:23.541Z,13.60
2022-10-06T23:46:56.122Z,13.60
2022-10-06T23:49:28.572Z,13.60
2022-10-06T23:52:02.083Z,13.60
2022-10-06T23:54:34.980Z,13.60
2022-10-06T23:57:07.538Z,13.60
2022-10-06T23:59:39.594Z,13.60
